createdAt,value
2022-12-16T00:01:37.577Z,97625.00
2022-12-16T00:04:07.697Z,97642.00
2022-12-16T00:06:38.700Z,97646.00
2022-12-16T00:09:08.677Z,97633.00
2022-12-16T00:11:41.209Z,97633.00
2022-12-16T00:14:11.174Z,97614.00
2022-12-16T00:16:41.261Z,97621.00
2022-12-16T00:19:11.188Z,97625.00
2022-12-16T00:21:41.170Z,97598.00
2022-12-16T00:24:11.071Z,97603.00
2022-12-16T00:26:43.621Z,97609.00
2022-12-16T00:29:13.883Z,97599.00
2022-12-16T00:31:48.367Z,97605.00
2022-12-16T00:34:18.702Z,97606.00
2022-12-16T00:36:48.601Z,97613.00
2022-12-16T00:39:18.560Z,97604.00
2022-12-16T00:41:51.120Z,97598.00
2022-12-16T00:44:21.800Z,97593.00
2022-12-16T00:46:51.644Z,97588.00
2022-12-16T00:49:21.719Z,97592.00
2022-12-16T00:51:51.691Z,97584.00
2022-12-16T00:54:21.656Z,97592.00
2022-12-16T00:56:54.150Z,97599.00
2022-12-16T00:59:25.074Z,97601.00
2022-12-16T01:01:55.101Z,97599.00
2022-12-16T01:04:26.775Z,97596.00
2022-12-16T01:06:57.087Z,97588.00
2022-12-16T01:09:27.245Z,97592.00
2022-12-16T01:11:59.848Z,97589.00
2022-12-16T01:14:29.761Z,97588.00
2022-12-16T01:16:59.599Z,97596.00
2022-12-16T01:19:29.627Z,97591.00
2022-12-16T01:21:59.584Z,97582.00
2022-12-16T01:24:29.562Z,97584.00
2022-12-16T01:27:02.036Z,97572.00
2022-12-16T01:29:32.003Z,97568.00
2022-12-16T01:32:01.876Z,97568.00
2022-12-16T01:34:32.079Z,97558.00
2022-12-16T01:37:01.987Z,97553.00
2022-12-16T01:39:31.866Z,97559.00
2022-12-16T01:42:04.342Z,97553.00
2022-12-16T01:44:36.698Z,97558.00
2022-12-16T01:47:08.191Z,97545.00
2022-12-16T01:49:40.839Z,97542.00
2022-12-16T01:52:15.695Z,97532.00
2022-12-16T01:54:47.337Z,97548.00
2022-12-16T01:57:23.091Z,97541.00
2022-12-16T01:59:55.123Z,97533.00
2022-12-16T02:02:27.350Z,97537.00
2022-12-16T02:05:10.507Z,97531.00
2022-12-16T02:07:40.429Z,97522.00
2022-12-16T02:10:12.007Z,97519.00
2022-12-16T02:12:48.803Z,97521.00
2022-12-16T02:15:27.609Z,97513.00
2022-12-16T02:18:02.856Z,97510.00
2022-12-16T02:20:56.643Z,97512.00
2022-12-16T02:24:02.019Z,97519.00
2022-12-16T02:26:54.411Z,97521.00
2022-12-16T02:29:47.351Z,97521.00
2022-12-16T02:32:25.440Z,97526.00
2022-12-16T02:35:00.280Z,97505.00
2022-12-16T02:37:38.448Z,97504.00
2022-12-16T02:40:12.663Z,97509.00
2022-12-16T02:42:45.915Z,97500.00
2022-12-16T02:45:19.033Z,97504.00
2022-12-16T02:47:51.612Z,97498.00
2022-12-16T02:50:24.064Z,97499.00
2022-12-16T02:52:54.500Z,97510.00
2022-12-16T02:55:26.194Z,97501.00
2022-12-16T02:58:14.481Z,97499.00
2022-12-16T03:00:52.139Z,97503.00
2022-12-16T03:03:29.335Z,97502.00
2022-12-16T03:06:00.146Z,97505.00
2022-12-16T03:08:34.190Z,97498.00
2022-12-16T03:11:05.172Z,97480.00
2022-12-16T03:13:38.801Z,97487.00
2022-12-16T03:16:10.291Z,97489.00
2022-12-16T03:18:45.777Z,97499.00
2022-12-16T03:21:18.403Z,97498.00
2022-12-16T03:23:52.086Z,97486.00
2022-12-16T03:26:25.822Z,97490.00
2022-12-16T03:28:59.175Z,97491.00
2022-12-16T03:31:33.936Z,97494.00
2022-12-16T03:34:10.883Z,97489.00
2022-12-16T03:36:41.924Z,97499.00
2022-12-16T03:39:12.700Z,97500.00
2022-12-16T03:41:43.430Z,97514.00
2022-12-16T03:44:14.840Z,97502.00
2022-12-16T03:46:45.410Z,97504.00
2022-12-16T03:49:17.970Z,97511.00
2022-12-16T03:51:47.880Z,97510.00
2022-12-16T03:54:19.188Z,97510.00
2022-12-16T03:56:49.297Z,97499.00
2022-12-16T03:59:19.377Z,97500.00
2022-12-16T04:01:50.132Z,97511.00
2022-12-16T04:04:22.761Z,97510.00
2022-12-16T04:07:12.694Z,97515.00
2022-12-16T04:09:42.672Z,97516.00
2022-12-16T04:12:25.317Z,97524.00
2022-12-16T04:15:07.649Z,97515.00
2022-12-16T04:17:49.996Z,97510.00
2022-12-16T04:20:35.425Z,97500.00
2022-12-16T04:23:18.187Z,97510.00
2022-12-16T04:25:48.260Z,97515.00
2022-12-16T04:28:18.124Z,97503.00
2022-12-16T04:30:48.058Z,97510.00
2022-12-16T04:33:31.173Z,97510.00
2022-12-16T04:36:16.427Z,97517.00
2022-12-16T04:38:58.965Z,97513.00
2022-12-16T04:41:41.271Z,97526.00
2022-12-16T04:44:24.135Z,97528.00
2022-12-16T04:47:06.536Z,97521.00
2022-12-16T04:49:48.900Z,97511.00
2022-12-16T04:52:34.115Z,97530.00
2022-12-16T04:55:16.607Z,97526.00
2022-12-16T04:58:00.123Z,97524.00
2022-12-16T05:00:42.436Z,97517.00
2022-12-16T05:03:24.849Z,97525.00
2022-12-16T05:06:07.360Z,97531.00
2022-12-16T05:08:52.359Z,97523.00
2022-12-16T05:11:34.679Z,97528.00
2022-12-16T05:14:17.172Z,97526.00
2022-12-16T05:16:59.325Z,97520.00
2022-12-16T05:19:41.659Z,97518.00
2022-12-16T05:22:35.795Z,97515.00
2022-12-16T05:25:21.938Z,97515.00
2022-12-16T05:28:06.426Z,97517.00
2022-12-16T05:30:48.779Z,97490.00
2022-12-16T05:33:31.497Z,97485.00
2022-12-16T05:36:14.023Z,97488.00
2022-12-16T05:38:56.331Z,97476.00
2022-12-16T05:41:41.310Z,97481.00
2022-12-16T05:44:23.664Z,97483.00
2022-12-16T05:47:06.005Z,97479.00
2022-12-16T05:49:48.387Z,97478.00
2022-12-16T05:52:30.716Z,97478.00
2022-12-16T05:55:13.013Z,97478.00
2022-12-16T05:57:57.899Z,97480.00
2022-12-16T06:00:40.200Z,97465.00
2022-12-16T06:03:22.629Z,97456.00
2022-12-16T06:06:17.058Z,97452.00
2022-12-16T06:08:59.355Z,97458.00
2022-12-16T06:11:47.262Z,97469.00
2022-12-16T06:14:32.157Z,97478.00
2022-12-16T06:17:14.489Z,97473.00
2022-12-16T06:19:56.787Z,97482.00
2022-12-16T06:22:39.089Z,97478.00
2022-12-16T06:25:21.880Z,97484.00
2022-12-16T06:28:06.275Z,97478.00
2022-12-16T06:30:51.227Z,97478.00
2022-12-16T06:33:33.859Z,97487.00
2022-12-16T06:36:16.372Z,97482.00
2022-12-16T06:38:58.656Z,97478.00
2022-12-16T06:41:40.934Z,97487.00
2022-12-16T06:44:25.790Z,97484.00
2022-12-16T06:47:10.702Z,97489.00
2022-12-16T06:49:52.988Z,97492.00
2022-12-16T06:52:35.250Z,97490.00
2022-12-16T06:55:17.539Z,97495.00
2022-12-16T06:57:59.873Z,97498.00
2022-12-16T07:00:42.195Z,97497.00
2022-12-16T07:03:29.476Z,97495.00
2022-12-16T07:06:15.023Z,97496.00
2022-12-16T07:08:57.327Z,97510.00
2022-12-16T07:11:39.617Z,97501.00
2022-12-16T07:14:21.904Z,97520.00
2022-12-16T07:17:04.177Z,97504.00
2022-12-16T07:19:49.064Z,97514.00
2022-12-16T07:22:39.966Z,97514.00
2022-12-16T07:25:23.531Z,97499.00
2022-12-16T07:28:09.341Z,97500.00
2022-12-16T07:30:54.630Z,97511.00
2022-12-16T07:33:42.533Z,97513.00
2022-12-16T07:36:27.487Z,97505.00
2022-12-16T07:39:09.833Z,97525.00
2022-12-16T07:41:52.156Z,97526.00
2022-12-16T07:44:35.435Z,97525.00
2022-12-16T07:47:17.895Z,97540.00
2022-12-16T07:50:00.485Z,97538.00
2022-12-16T07:52:45.441Z,97529.00
2022-12-16T08:06:59.061Z,97563.00
2022-12-16T08:50:56.619Z,97592.00
2022-12-16T08:53:38.992Z,97589.00
2022-12-16T08:56:21.980Z,97594.00
2022-12-16T08:59:04.314Z,97591.00
2022-12-16T09:01:46.728Z,97600.00
2022-12-16T09:04:28.986Z,97605.00
2022-12-16T09:07:13.939Z,97616.00
2022-12-16T09:09:56.199Z,97620.00
2022-12-16T09:12:38.508Z,97618.00
2022-12-16T09:15:21.500Z,97640.00
2022-12-16T09:18:09.062Z,97638.00
2022-12-16T09:20:51.388Z,97653.00
2022-12-16T09:23:36.553Z,97650.00
2022-12-16T09:26:19.277Z,97648.00
2022-12-16T09:29:01.554Z,97655.00
2022-12-16T09:31:43.830Z,97646.00
2022-12-16T09:34:26.106Z,97646.00
2022-12-16T09:37:08.425Z,97648.00
2022-12-16T09:39:53.777Z,97637.00
2022-12-16T09:42:39.417Z,97629.00
2022-12-16T09:45:28.734Z,97634.00
2022-12-16T09:48:12.221Z,97637.00
2022-12-16T09:50:56.711Z,97634.00
2022-12-16T09:53:39.026Z,97646.00
2022-12-16T09:56:30.894Z,97632.00
2022-12-16T09:59:16.168Z,97631.00
2022-12-16T10:01:59.007Z,97646.00
2022-12-16T10:04:41.458Z,97643.00
2022-12-16T10:07:27.989Z,97646.00
2022-12-16T10:10:14.139Z,97657.00
2022-12-16T10:13:02.866Z,97654.00
2022-12-16T10:15:51.211Z,97656.00
2022-12-16T10:18:54.070Z,97653.00
2022-12-16T10:21:44.094Z,97667.00
2022-12-16T10:24:36.940Z,97672.00
2022-12-16T10:27:23.050Z,97674.00
2022-12-16T10:30:07.946Z,97669.00
2022-12-16T10:32:55.071Z,97671.00
2022-12-16T10:35:40.346Z,97672.00
2022-12-16T10:38:29.485Z,97671.00
2022-12-16T10:41:13.645Z,97674.00
2022-12-16T10:43:59.811Z,97669.00
2022-12-16T10:46:49.719Z,97658.00
2022-12-16T10:49:32.225Z,97662.00
2022-12-16T10:52:14.853Z,97656.00
2022-12-16T10:54:59.800Z,97669.00
2022-12-16T10:57:49.553Z,97655.00
2022-12-16T11:00:34.257Z,97647.00
2022-12-16T11:03:37.973Z,97629.00
2022-12-16T11:06:21.506Z,97638.00
2022-12-16T11:09:15.721Z,97638.00
2022-12-16T11:11:58.032Z,97651.00
2022-12-16T11:14:50.336Z,97655.00
2022-12-16T11:17:44.276Z,97644.00
2022-12-16T11:20:32.775Z,97648.00
2022-12-16T11:23:33.255Z,97642.00
2022-12-16T11:26:21.310Z,97642.00
2022-12-16T11:29:18.380Z,97637.00
2022-12-16T11:32:01.460Z,97639.00
2022-12-16T11:34:43.980Z,97641.00
2022-12-16T11:37:34.940Z,97637.00
2022-12-16T11:40:18.149Z,97636.00
2022-12-16T11:43:08.530Z,97637.00
2022-12-16T11:45:53.831Z,97643.00
2022-12-16T11:48:47.291Z,97653.00
2022-12-16T11:51:31.013Z,97661.00
2022-12-16T11:54:18.947Z,97658.00
2022-12-16T11:57:01.702Z,97667.00
2022-12-16T11:59:49.579Z,97675.00
2022-12-16T12:02:34.948Z,97662.00
2022-12-16T12:05:17.243Z,97672.00
2022-12-16T12:08:06.455Z,97679.00
2022-12-16T12:11:05.658Z,97675.00
2022-12-16T12:14:07.694Z,97676.00
2022-12-16T12:16:59.198Z,97670.00
2022-12-16T12:19:47.742Z,97684.00
2022-12-16T12:22:38.964Z,97688.00
2022-12-16T12:25:24.308Z,97687.00
2022-12-16T12:28:26.686Z,97686.00
2022-12-16T12:31:13.565Z,97684.00
2022-12-16T12:34:11.326Z,97683.00
2022-12-16T12:36:57.430Z,97686.00
2022-12-16T12:39:45.232Z,97677.00
2022-12-16T12:42:36.866Z,97681.00
2022-12-16T12:45:37.175Z,97675.00
2022-12-16T12:48:24.776Z,97672.00
2022-12-16T12:51:11.435Z,97674.00
2022-12-16T12:53:59.091Z,97663.00
2022-12-16T12:56:47.806Z,97678.00
2022-12-16T12:59:33.028Z,97675.00
2022-12-16T13:02:19.210Z,97688.00
2022-12-16T13:05:12.091Z,97691.00
2022-12-16T13:07:54.396Z,97686.00
2022-12-16T13:10:49.981Z,97685.00
2022-12-16T13:13:52.883Z,97701.00
2022-12-16T13:17:11.201Z,97704.00
2022-12-16T13:19:59.291Z,97717.00
2022-12-16T13:22:46.412Z,97713.00
2022-12-16T13:25:47.812Z,97730.00
2022-12-16T13:28:36.966Z,97733.00
2022-12-16T13:31:25.177Z,97735.00
2022-12-16T13:34:09.260Z,97749.00
2022-12-16T13:37:09.333Z,97768.00
2022-12-16T13:39:51.611Z,97767.00
2022-12-16T13:43:03.334Z,97775.00
2022-12-16T13:45:48.268Z,97778.00
2022-12-16T13:48:52.329Z,97803.00
2022-12-16T13:52:21.904Z,97813.00
2022-12-16T13:55:16.729Z,97811.00
2022-12-16T13:58:02.249Z,97814.00
2022-12-16T14:00:45.115Z,97802.00
2022-12-16T14:03:31.611Z,97822.00
2022-12-16T14:06:14.255Z,97817.00
2022-12-16T14:08:56.837Z,97814.00
2022-12-16T14:11:51.745Z,97814.00
2022-12-16T14:14:38.972Z,97817.00
2022-12-16T14:17:26.399Z,97817.00
2022-12-16T14:20:13.624Z,97820.00
2022-12-16T14:23:07.863Z,97832.00
2022-12-16T14:25:50.454Z,97819.00
2022-12-16T14:28:43.547Z,97831.00
2022-12-16T14:31:30.682Z,97828.00
2022-12-16T14:34:13.029Z,97835.00
2022-12-16T14:36:56.186Z,97833.00
2022-12-16T14:39:39.437Z,97851.00
2022-12-16T14:42:33.963Z,97861.00
2022-12-16T14:45:19.467Z,97861.00
2022-12-16T14:48:10.501Z,97883.00
2022-12-16T14:50:52.772Z,97872.00
2022-12-16T14:53:37.328Z,97882.00
2022-12-16T14:56:31.144Z,97872.00
2022-12-16T14:59:32.564Z,97867.00
2022-12-16T15:02:29.677Z,97890.00
2022-12-16T15:05:12.328Z,97891.00
2022-12-16T15:07:57.444Z,97898.00
2022-12-16T15:10:41.672Z,97889.00
2022-12-16T15:13:29.832Z,97883.00
2022-12-16T15:16:12.147Z,97889.00
2022-12-16T15:18:59.990Z,97880.00
2022-12-16T15:21:42.460Z,97888.00
2022-12-16T15:24:25.961Z,97888.00
2022-12-16T15:27:29.027Z,97897.00
2022-12-16T15:30:13.876Z,97922.00
2022-12-16T15:32:57.348Z,97914.00
2022-12-16T15:35:45.797Z,97911.00
2022-12-16T15:38:31.824Z,97911.00
2022-12-16T15:41:14.246Z,97927.00
2022-12-16T15:43:57.764Z,97931.00
2022-12-16T15:46:42.118Z,97930.00
2022-12-16T15:49:34.044Z,97956.00
2022-12-16T15:52:37.180Z,97950.00
2022-12-16T15:55:52.078Z,97955.00
2022-12-16T15:58:40.354Z,97957.00
2022-12-16T16:01:23.293Z,97952.00
2022-12-16T16:04:07.652Z,97972.00
2022-12-16T16:06:51.035Z,97970.00
2022-12-16T16:09:39.805Z,97980.00
2022-12-16T16:12:24.175Z,97986.00
2022-12-16T16:15:06.785Z,97988.00
2022-12-16T16:17:49.168Z,97995.00
2022-12-16T16:20:33.075Z,97983.00
2022-12-16T16:23:15.472Z,97993.00
2022-12-16T16:26:04.064Z,97996.00
2022-12-16T16:28:46.538Z,97995.00
2022-12-16T16:31:28.893Z,98002.00
2022-12-16T16:34:11.286Z,98007.00
2022-12-16T16:36:53.641Z,98011.00
2022-12-16T16:39:41.481Z,98022.00
2022-12-16T16:42:26.651Z,98008.00
2022-12-16T16:45:09.025Z,98015.00
2022-12-16T16:47:51.174Z,98005.00
2022-12-16T16:50:34.297Z,98007.00
2022-12-16T16:53:16.581Z,98012.00
2022-12-16T16:55:58.844Z,98021.00
2022-12-16T16:58:45.589Z,98024.00
2022-12-16T17:01:29.043Z,98014.00
2022-12-16T17:04:11.480Z,98025.00
2022-12-16T17:06:53.860Z,98029.00
2022-12-16T17:09:38.407Z,98039.00
2022-12-16T17:12:29.617Z,98033.00
2022-12-16T17:15:14.490Z,98049.00
2022-12-16T17:18:05.513Z,98049.00
2022-12-16T17:20:47.788Z,98056.00
2022-12-16T17:23:38.875Z,98051.00
2022-12-16T17:26:21.129Z,98058.00
2022-12-16T17:29:03.433Z,98064.00
2022-12-16T17:31:48.438Z,98069.00
2022-12-16T17:34:30.801Z,98077.00
2022-12-16T17:37:13.083Z,98081.00
2022-12-16T17:39:55.411Z,98090.00
2022-12-16T17:42:40.591Z,98094.00
2022-12-16T17:45:25.770Z,98093.00
2022-12-16T17:48:10.669Z,98090.00
2022-12-16T17:50:53.019Z,98095.00
2022-12-16T17:53:35.771Z,98096.00
2022-12-16T17:56:19.213Z,98102.00
2022-12-16T17:59:01.499Z,98106.00
2022-12-16T18:01:43.674Z,98096.00
2022-12-16T18:04:28.831Z,98088.00
2022-12-16T18:07:10.935Z,98091.00
2022-12-16T18:09:53.225Z,98093.00
2022-12-16T18:12:36.032Z,98094.00
2022-12-16T18:15:18.547Z,98089.00
2022-12-16T18:18:03.603Z,98097.00
2022-12-16T18:20:48.725Z,98095.00
2022-12-16T18:23:31.321Z,98094.00
2022-12-16T18:26:15.739Z,98101.00
2022-12-16T18:28:58.118Z,98086.00
2022-12-16T18:31:40.493Z,98088.00
2022-12-16T18:34:22.860Z,98086.00
2022-12-16T18:37:07.832Z,98092.00
2022-12-16T18:39:50.137Z,98092.00
2022-12-16T18:42:32.438Z,98095.00
2022-12-16T18:45:14.855Z,98098.00
2022-12-16T18:47:57.153Z,98103.00
2022-12-16T18:50:39.445Z,98106.00
2022-12-16T18:53:24.331Z,98113.00
2022-12-16T18:56:15.053Z,98110.00
2022-12-16T18:58:57.379Z,98122.00
2022-12-16T19:01:39.906Z,98125.00
2022-12-16T19:04:22.298Z,98129.00
2022-12-16T19:07:04.599Z,98132.00
2022-12-16T19:09:49.502Z,98131.00
2022-12-16T19:12:31.794Z,98135.00
2022-12-16T19:15:14.061Z,98134.00
2022-12-16T19:17:56.367Z,98143.00
2022-12-16T19:20:39.090Z,98151.00
2022-12-16T19:23:21.396Z,98153.00
2022-12-16T19:26:17.654Z,98154.00
2022-12-16T19:29:00.001Z,98152.00
2022-12-16T19:31:42.411Z,98141.00
2022-12-16T19:34:24.772Z,98146.00
2022-12-16T19:37:07.071Z,98156.00
2022-12-16T19:39:49.393Z,98152.00
2022-12-16T19:42:34.319Z,98154.00
2022-12-16T19:45:16.740Z,98169.00
2022-12-16T19:47:58.846Z,98161.00
2022-12-16T19:50:41.393Z,98160.00
2022-12-16T19:53:23.754Z,98158.00
2022-12-16T19:56:10.475Z,98165.00
2022-12-16T19:58:56.285Z,98177.00
2022-12-16T20:01:38.830Z,98178.00
2022-12-16T20:04:21.174Z,98186.00
2022-12-16T20:07:23.028Z,98194.00
2022-12-16T20:10:05.687Z,98192.00
2022-12-16T20:12:47.996Z,98185.00
2022-12-16T20:15:32.896Z,98196.00
2022-12-16T20:18:15.382Z,98195.00
2022-12-16T20:20:57.676Z,98209.00
2022-12-16T20:23:40.021Z,98212.00
2022-12-16T20:26:22.376Z,98220.00
2022-12-16T20:29:04.795Z,98225.00
2022-12-16T20:31:50.632Z,98229.00
2022-12-16T20:34:34.013Z,98224.00
2022-12-16T20:37:16.614Z,98224.00
2022-12-16T20:40:01.548Z,98232.00
2022-12-16T20:42:43.969Z,98224.00
2022-12-16T20:45:30.913Z,98223.00
2022-12-16T20:48:15.997Z,98234.00
2022-12-16T20:50:58.297Z,98233.00
2022-12-16T20:53:41.363Z,98243.00
2022-12-16T20:56:24.196Z,98236.00
2022-12-16T20:59:06.472Z,98250.00
2022-12-16T21:05:02.385Z,98251.00
2022-12-16T21:07:44.807Z,98262.00
2022-12-16T21:10:27.124Z,98264.00
2022-12-16T21:13:09.383Z,98261.00
2022-12-16T21:15:52.779Z,98266.00
2022-12-16T21:18:38.779Z,98264.00
2022-12-16T21:21:23.596Z,98270.00
2022-12-16T21:24:05.916Z,98271.00
2022-12-16T21:26:48.232Z,98281.00
2022-12-16T21:29:30.569Z,98287.00
2022-12-16T21:32:12.868Z,98287.00
2022-12-16T21:34:56.415Z,98290.00
2022-12-16T21:37:41.510Z,98298.00
2022-12-16T21:40:25.287Z,98297.00
2022-12-16T21:43:07.568Z,98309.00
2022-12-16T21:45:49.904Z,98309.00
2022-12-16T21:48:32.284Z,98306.00
2022-12-16T21:51:14.615Z,98309.00
2022-12-16T21:57:01.923Z,98310.00
2022-12-16T21:59:44.226Z,98312.00
2022-12-16T22:02:27.906Z,98322.00
2022-12-16T22:05:10.205Z,98322.00
2022-12-16T22:07:52.539Z,98312.00
2022-12-16T22:10:41.544Z,98328.00
2022-12-16T22:13:23.845Z,98323.00
2022-12-16T22:16:10.833Z,98324.00
2022-12-16T22:18:53.152Z,98329.00
2022-12-16T22:21:38.267Z,98326.00
2022-12-16T22:24:20.877Z,98336.00
2022-12-16T22:27:05.804Z,98336.00
2022-12-16T22:29:48.071Z,98325.00
2022-12-16T22:32:30.144Z,98337.00
2022-12-16T22:35:12.463Z,98342.00
2022-12-16T22:37:54.766Z,98353.00
2022-12-16T22:40:38.466Z,98347.00
2022-12-16T22:43:23.380Z,98350.00
2022-12-16T22:46:13.791Z,98356.00
2022-12-16T22:49:04.676Z,98356.00
2022-12-16T22:51:47.066Z,98356.00
2022-12-16T22:54:29.365Z,98349.00
2022-12-16T22:57:11.671Z,98346.00
2022-12-16T22:59:56.793Z,98372.00
2022-12-16T23:02:39.110Z,98364.00
2022-12-16T23:05:27.345Z,98357.00
2022-12-16T23:08:10.187Z,98366.00
2022-12-16T23:10:52.562Z,98377.00
2022-12-16T23:13:41.083Z,98377.00
2022-12-16T23:16:26.303Z,98374.00
2022-12-16T23:19:08.652Z,98368.00
2022-12-16T23:21:52.029Z,98390.00
2022-12-16T23:24:34.356Z,98390.00
2022-12-16T23:27:16.656Z,98390.00
2022-12-16T23:29:58.940Z,98388.00
2022-12-16T23:32:46.825Z,98391.00
2022-12-16T23:35:29.305Z,98391.00
2022-12-16T23:38:16.028Z,98377.00
2022-12-16T23:40:58.298Z,98380.00
2022-12-16T23:43:40.850Z,98377.00
2022-12-16T23:46:23.409Z,98389.00
2022-12-16T23:49:11.064Z,98391.00
2022-12-16T23:51:53.375Z,98390.00
2022-12-16T23:54:36.099Z,98394.00
2022-12-16T23:57:18.408Z,98398.00
